Time;durP1;ratioP1;P1;durP2;ratioP2;P2;SDS_P1;SDS_P2;PMS_P1;PMS_P2;Temp;Humidity;BMP_temperature;BMP_pressure;BME280_temperature;BME280_humidity;BME280_pressure;Samples;Min_cycle;Max_cycle;Signal;HPM_P1;HPM_P2
2023/01/31 00:01:23;;;;;;;16.10;9.65;;;1.00;92.60;;;;;;5042494;28;20032;-64
2023/01/31 00:03:54;;;;;;;16.63;8.90;;;1.00;93.00;;;;;;5052844;28;20068;-64
2023/01/31 00:06:22;;;;;;;18.60;9.40;;;1.00;92.40;;;;;;5049359;28;20029;-63
2023/01/31 00:08:49;;;;;;;20.92;9.80;;;1.00;92.50;;;;;;5044859;28;20079;-64
2023/01/31 00:11:16;;;;;;;21.52;9.65;;;1.00;92.60;;;;;;5040281;28;20082;-64
2023/01/31 00:13:42;;;;;;;17.50;10.50;;;0.90;91.70;;;;;;5041986;28;20036;-63
2023/01/31 00:16:09;;;;;;;15.40;9.20;;;1.00;93.00;;;;;;5043917;28;20026;-63
2023/01/31 00:18:37;;;;;;;16.60;8.43;;;0.90;92.60;;;;;;5039782;28;20025;-63
2023/01/31 00:21:12;;;;;;;22.58;10.05;;;0.90;92.60;;;;;;5039224;28;20407;-63
2023/01/31 00:23:39;;;;;;;14.95;9.20;;;0.90;92.30;;;;;;5041274;28;20041;-63
2023/01/31 00:26:07;;;;;;;18.13;8.50;;;0.90;92.20;;;;;;5049235;28;20139;-66
2023/01/31 00:28:33;;;;;;;14.45;8.50;;;0.90;91.90;;;;;;5053944;28;20084;-65
2023/01/31 00:30:59;;;;;;;20.02;9.52;;;0.80;91.70;;;;;;5040286;28;20036;-64
2023/01/31 00:33:24;;;;;;;20.30;9.32;;;0.80;91.50;;;;;;5039916;28;20421;-64
2023/01/31 00:35:50;;;;;;;16.95;9.35;;;0.80;91.50;;;;;;5051546;28;20401;-64
2023/01/31 00:38:15;;;;;;;15.95;8.80;;;0.80;91.30;;;;;;5041807;28;20367;-64
2023/01/31 00:40:43;;;;;;;20.85;10.07;;;0.80;91.70;;;;;;5050654;28;20385;-64
2023/01/31 00:43:09;;;;;;;19.05;9.27;;;0.80;91.70;;;;;;5045078;28;20105;-65
2023/01/31 00:45:34;;;;;;;19.95;10.27;;;0.80;90.90;;;;;;5038643;28;20114;-63
2023/01/31 00:48:00;;;;;;;18.75;11.07;;;0.80;91.60;;;;;;5044501;28;20051;-63
2023/01/31 00:50:27;;;;;;;18.38;9.50;;;0.70;91.00;;;;;;5041958;28;20136;-63
2023/01/31 00:52:53;;;;;;;17.67;9.23;;;0.70;90.50;;;;;;5043743;28;20021;-63
2023/01/31 00:55:18;;;;;;;23.58;10.25;;;0.70;90.60;;;;;;5046146;28;20032;-63
2023/01/31 00:57:44;;;;;;;18.10;9.93;;;0.60;90.50;;;;;;5046107;28;20112;-63
2023/01/31 01:00:10;;;;;;;18.55;10.18;;;0.50;89.20;;;;;;5049937;28;20078;-63
2023/01/31 01:02:38;;;;;;;19.15;10.65;;;0.40;89.00;;;;;;5038471;28;20029;-64
2023/01/31 01:05:04;;;;;;;18.23;9.52;;;0.30;88.40;;;;;;5047049;28;20036;-63
2023/01/31 01:07:29;;;;;;;20.00;10.13;;;0.30;86.90;;;;;;5052898;28;20414;-64
2023/01/31 01:09:55;;;;;;;18.73;11.13;;;0.20;87.70;;;;;;5047985;28;20025;-63
2023/01/31 01:12:21;;;;;;;17.52;10.30;;;0.00;87.10;;;;;;5041071;28;20021;-63
2023/01/31 01:14:46;;;;;;;17.15;9.38;;;-0.10;85.90;;;;;;5044449;28;20056;-63
2023/01/31 01:17:12;;;;;;;19.13;10.05;;;-0.10;84.70;;;;;;5044164;28;20032;-63
2023/01/31 01:19:37;;;;;;;15.68;9.00;;;-0.10;84.20;;;;;;5049524;28;20126;-63
2023/01/31 01:22:03;;;;;;;21.92;9.90;;;-0.10;83.60;;;;;;5040188;28;20041;-63
2023/01/31 01:24:29;;;;;;;14.00;9.18;;;-0.20;83.00;;;;;;5038869;28;20045;-63
2023/01/31 01:26:54;;;;;;;15.38;9.40;;;-0.20;82.10;;;;;;5044239;28;20115;-63
2023/01/31 01:29:20;;;;;;;21.92;10.13;;;-0.20;82.80;;;;;;5045572;28;20029;-63
2023/01/31 01:31:46;;;;;;;22.52;9.90;;;-0.30;83.10;;;;;;5040825;28;20022;-64
2023/01/31 01:34:14;;;;;;;14.35;8.68;;;-0.40;83.10;;;;;;5039868;28;20037;-63
2023/01/31 01:36:40;;;;;;;17.42;9.77;;;-0.50;82.40;;;;;;5043237;28;20029;-63
2023/01/31 01:39:08;;;;;;;25.13;10.20;;;-0.50;80.80;;;;;;5039958;28;20021;-63
2023/01/31 01:41:34;;;;;;;21.58;9.05;;;-0.50;81.00;;;;;;5046375;28;20029;-63
2023/01/31 01:44:03;;;;;;;15.50;8.57;;;-0.50;81.00;;;;;;5048704;28;20380;-64
2023/01/31 01:46:40;;;;;;;24.15;10.43;;;-0.50;80.40;;;;;;5035912;28;20025;-63
2023/01/31 01:49:31;;;;;;;15.05;9.55;;;-0.50;79.60;;;;;;5042497;28;20502;-63
2023/01/31 01:52:01;;;;;;;17.45;10.30;;;-0.50;79.60;;;;;;5036170;28;20029;-64
2023/01/31 01:54:34;;;;;;;18.75;9.27;;;-0.50;80.10;;;;;;5040669;28;20028;-63
2023/01/31 01:57:02;;;;;;;18.33;9.40;;;-0.60;79.20;;;;;;5039383;28;20021;-64
2023/01/31 01:59:33;;;;;;;20.05;9.63;;;-0.50;78.40;;;;;;5037163;28;20033;-63
2023/01/31 02:02:00;;;;;;;21.80;12.18;;;-0.60;79.30;;;;;;5039605;28;20033;-63
2023/01/31 02:04:30;;;;;;;22.17;9.68;;;-0.60;79.30;;;;;;5038085;28;20036;-63
2023/01/31 02:06:59;;;;;;;15.68;8.55;;;-0.70;81.20;;;;;;5045418;28;20115;-63
2023/01/31 02:09:57;;;;;;;16.92;8.95;;;-0.80;80.20;;;;;;5036968;28;20022;-64
2023/01/31 02:12:23;;;;;;;24.50;11.18;;;-0.80;79.10;;;;;;5036274;28;20450;-63
2023/01/31 02:14:52;;;;;;;17.58;8.65;;;-0.80;80.20;;;;;;5041403;28;20127;-64
2023/01/31 02:17:18;;;;;;;21.58;9.50;;;-0.90;79.90;;;;;;5036319;28;20021;-63
2023/01/31 02:19:50;;;;;;;17.65;9.27;;;-0.90;78.80;;;;;;5034580;28;20035;-63
2023/01/31 02:22:32;;;;;;;15.32;8.50;;;-0.80;78.50;;;;;;5043172;28;20025;-63
2023/01/31 02:25:21;;;;;;;17.15;9.30;;;-0.90;79.90;;;;;;5036992;28;20053;-64
2023/01/31 02:28:17;;;;;;;20.05;9.13;;;-1.00;80.50;;;;;;5036806;28;20033;-63
2023/01/31 02:30:49;;;;;;;20.70;9.60;;;-1.00;78.00;;;;;;5037034;28;20482;-63
2023/01/31 02:33:30;;;;;;;23.42;9.57;;;-1.10;79.70;;;;;;5036711;28;20021;-63
2023/01/31 02:36:00;;;;;;;17.88;9.52;;;-1.00;77.40;;;;;;5041986;28;20076;-63
2023/01/31 02:38:37;;;;;;;21.75;9.43;;;-1.00;78.40;;;;;;5044040;28;20291;-63
2023/01/31 02:41:35;;;;;;;21.00;10.88;;;-1.00;78.20;;;;;;5034326;28;20104;-64
2023/01/31 02:47:38;;;;;;;20.33;10.68;;;-0.80;75.70;;;;;;5041473;28;20087;-63
2023/01/31 02:50:34;;;;;;;20.50;10.43;;;-0.80;76.80;;;;;;5035567;28;20079;-63
2023/01/31 02:53:29;;;;;;;22.27;10.25;;;-0.90;76.80;;;;;;5033411;28;20318;-63
2023/01/31 02:56:32;;;;;;;23.67;9.95;;;-0.80;75.90;;;;;;5034516;28;20120;-64
2023/01/31 02:59:04;;;;;;;20.33;9.40;;;-0.90;77.20;;;;;;5031640;28;20040;-63
2023/01/31 03:01:40;;;;;;;19.05;9.00;;;-0.90;76.50;;;;;;5038554;28;20025;-64
2023/01/31 03:04:08;;;;;;;33.95;11.77;;;-0.80;75.90;;;;;;5033917;28;20052;-63
2023/01/31 03:06:34;;;;;;;22.80;10.95;;;-0.70;76.00;;;;;;5045348;28;20024;-63
2023/01/31 03:09:24;;;;;;;20.92;9.65;;;-0.70;78.00;;;;;;5051887;28;20470;-63
2023/01/31 03:12:20;;;;;;;18.90;9.32;;;-0.80;77.80;;;;;;5050603;28;20116;-63
2023/01/31 03:15:04;;;;;;;16.23;9.18;;;-0.90;78.40;;;;;;5049205;28;20025;-62
2023/01/31 03:17:33;;;;;;;20.02;10.30;;;-0.90;78.50;;;;;;5048950;28;20025;-63
2023/01/31 03:20:07;;;;;;;25.50;11.15;;;-0.90;78.10;;;;;;5040216;28;20040;-65
2023/01/31 03:22:37;;;;;;;24.63;12.50;;;-0.90;78.60;;;;;;5048120;28;20040;-65
2023/01/31 03:25:06;;;;;;;24.63;10.93;;;-1.00;78.80;;;;;;5042162;28;20424;-64
2023/01/31 03:27:34;;;;;;;25.63;11.50;;;-0.90;76.20;;;;;;5053830;28;20048;-64
2023/01/31 03:30:12;;;;;;;18.35;9.43;;;-0.80;76.70;;;;;;5052006;28;20032;-63
2023/01/31 03:32:51;;;;;;;25.95;11.75;;;-0.60;75.90;;;;;;5040134;28;20504;-64
2023/01/31 03:35:20;;;;;;;17.08;9.38;;;-0.50;76.90;;;;;;5045188;28;20033;-63
2023/01/31 03:37:52;;;;;;;23.33;10.80;;;-0.40;77.50;;;;;;5042539;28;20323;-64
2023/01/31 03:40:30;;;;;;;26.10;10.85;;;-0.30;78.60;;;;;;5038668;28;20561;-64
2023/01/31 03:43:04;;;;;;;24.05;11.10;;;-0.20;79.30;;;;;;5039137;28;20147;-64
2023/01/31 03:45:54;;;;;;;24.92;10.98;;;-0.10;80.80;;;;;;5040668;28;20307;-63
2023/01/31 03:48:25;;;;;;;18.95;9.55;;;-0.10;83.20;;;;;;5042880;28;20354;-63
2023/01/31 03:50:56;;;;;;;20.48;9.45;;;0.00;83.40;;;;;;5039340;28;20163;-63
2023/01/31 03:53:37;;;;;;;20.73;10.57;;;0.00;84.40;;;;;;5042705;28;20434;-63
2023/01/31 03:56:35;;;;;;;20.85;9.52;;;0.00;84.40;;;;;;5049729;28;20036;-63
2023/01/31 03:59:10;;;;;;;20.52;9.45;;;0.10;85.10;;;;;;5038219;28;20112;-63
2023/01/31 04:01:41;;;;;;;21.10;9.40;;;0.10;86.50;;;;;;5039280;28;20025;-63
2023/01/31 04:04:13;;;;;;;22.45;10.10;;;0.00;87.00;;;;;;5038575;28;20034;-63
2023/01/31 04:06:39;;;;;;;17.67;9.15;;;-0.10;87.00;;;;;;5049255;28;20031;-63
2023/01/31 04:09:04;;;;;;;27.13;10.32;;;-0.10;86.70;;;;;;5036327;28;20029;-63
2023/01/31 04:11:36;;;;;;;28.40;16.00;;;-0.10;85.80;;;;;;5037403;28;20060;-63
2023/01/31 04:14:02;;;;;;;18.60;9.63;;;-0.10;85.40;;;;;;5042199;28;20021;-63
2023/01/31 04:16:27;;;;;;;19.25;9.70;;;0.00;85.90;;;;;;5044695;28;20364;-63
2023/01/31 04:18:55;;;;;;;20.63;9.82;;;0.10;86.70;;;;;;5055188;28;20036;-64
2023/01/31 04:21:21;;;;;;;24.38;10.27;;;0.10;87.00;;;;;;5045222;28;20032;-63
2023/01/31 04:23:46;;;;;;;22.98;9.63;;;0.10;87.70;;;;;;5039689;28;20057;-63
2023/01/31 04:26:12;;;;;;;18.88;8.82;;;0.20;88.60;;;;;;5041072;28;20353;-63
2023/01/31 04:28:38;;;;;;;24.10;9.23;;;0.20;89.90;;;;;;5039271;28;20270;-63
2023/01/31 04:31:03;;;;;;;24.13;8.98;;;0.30;90.10;;;;;;5043605;28;20079;-63
2023/01/31 04:33:30;;;;;;;20.90;9.13;;;0.30;91.70;;;;;;5043832;28;20107;-64
2023/01/31 04:35:55;;;;;;;27.48;9.07;;;0.30;92.30;;;;;;5047227;28;20049;-63
2023/01/31 04:38:21;;;;;;;20.38;8.80;;;0.40;92.60;;;;;;5054785;28;20067;-63
2023/01/31 04:40:47;;;;;;;20.20;8.00;;;0.40;93.30;;;;;;5039032;28;20079;-63
2023/01/31 04:43:12;;;;;;;24.08;8.88;;;0.40;93.50;;;;;;5046884;28;20028;-63
2023/01/31 04:45:38;;;;;;;19.40;9.27;;;0.40;93.90;;;;;;5046633;28;20033;-63
2023/01/31 04:48:04;;;;;;;20.35;9.07;;;0.40;94.20;;;;;;5050578;28;20411;-64
2023/01/31 04:50:29;;;;;;;21.25;9.95;;;0.40;94.00;;;;;;5043233;28;20120;-63
2023/01/31 04:52:55;;;;;;;18.58;9.32;;;0.40;93.50;;;;;;5044126;28;20029;-63
2023/01/31 04:55:21;;;;;;;25.20;8.70;;;0.50;93.90;;;;;;5043840;28;20437;-63
2023/01/31 04:57:46;;;;;;;31.73;10.80;;;0.50;94.30;;;;;;5041757;28;20064;-63
2023/01/31 05:00:13;;;;;;;37.10;13.70;;;0.50;95.10;;;;;;5046067;28;21926;-63
2023/01/31 05:02:38;;;;;;;21.58;9.60;;;0.50;95.50;;;;;;5049230;28;20034;-63
2023/01/31 05:05:05;;;;;;;25.83;9.40;;;0.60;95.60;;;;;;5041372;28;20044;-64
2023/01/31 05:07:31;;;;;;;23.10;11.27;;;0.60;96.20;;;;;;5039017;28;20307;-63
2023/01/31 05:09:56;;;;;;;29.30;10.50;;;0.60;95.80;;;;;;5041084;28;20082;-63
2023/01/31 05:12:22;;;;;;;23.45;9.07;;;0.60;96.60;;;;;;5046020;28;20528;-63
2023/01/31 05:14:50;;;;;;;17.45;7.68;;;0.60;97.50;;;;;;5040835;28;20246;-64
2023/01/31 05:17:16;;;;;;;15.80;7.40;;;0.70;98.00;;;;;;5055459;28;20018;-63
2023/01/31 05:19:42;;;;;;;21.33;9.63;;;0.70;98.00;;;;;;5039605;28;20025;-63
2023/01/31 05:22:10;;;;;;;44.85;20.95;;;0.80;98.00;;;;;;5051447;28;20025;-63
2023/01/31 05:24:36;;;;;;;19.70;8.35;;;0.80;98.00;;;;;;5045325;28;20461;-62
2023/01/31 05:27:02;;;;;;;19.48;8.02;;;0.80;98.00;;;;;;5054269;28;20037;-63
2023/01/31 05:29:29;;;;;;;21.27;8.30;;;0.80;98.00;;;;;;5040254;28;20035;-63
2023/01/31 05:31:56;;;;;;;23.73;8.25;;;0.80;98.00;;;;;;5043776;28;20021;-63
2023/01/31 05:34:27;;;;;;;22.30;9.07;;;0.80;98.00;;;;;;5056103;28;20024;-62
2023/01/31 05:36:53;;;;;;;20.00;7.53;;;0.90;98.00;;;;;;5035635;28;20021;-63
2023/01/31 05:39:22;;;;;;;20.02;8.10;;;0.90;98.00;;;;;;5037837;28;20021;-63
2023/01/31 05:41:47;;;;;;;20.13;7.60;;;1.00;98.00;;;;;;5043431;28;20033;-63
2023/01/31 05:44:15;;;;;;;20.13;7.80;;;1.00;98.00;;;;;;5042625;28;20087;-63
2023/01/31 05:46:40;;;;;;;21.17;8.23;;;0.90;98.00;;;;;;5044508;28;20037;-62
2023/01/31 05:49:06;;;;;;;18.95;7.65;;;1.00;98.00;;;;;;5047310;28;20025;-63
2023/01/31 05:51:32;;;;;;;22.27;8.02;;;1.00;98.00;;;;;;5050774;28;20033;-63
2023/01/31 05:53:58;;;;;;;20.02;8.38;;;1.00;98.00;;;;;;5048119;28;20028;-63
2023/01/31 05:56:24;;;;;;;22.83;8.38;;;1.00;98.00;;;;;;5041170;28;20026;-63
2023/01/31 05:58:50;;;;;;;22.00;8.27;;;1.00;98.00;;;;;;5035681;28;20095;-63
2023/01/31 06:01:21;;;;;;;19.10;8.82;;;1.00;98.00;;;;;;5038447;28;20051;-63
2023/01/31 06:03:46;;;;;;;19.42;8.48;;;0.90;98.00;;;;;;5039910;28;20135;-62
2023/01/31 06:06:13;;;;;;;18.15;8.60;;;0.90;98.00;;;;;;5034729;28;20025;-62
2023/01/31 06:08:41;;;;;;;21.20;8.07;;;0.90;98.00;;;;;;5039916;28;20484;-62
2023/01/31 06:11:11;;;;;;;22.52;8.77;;;0.90;98.00;;;;;;5039359;28;20117;-62
2023/01/31 06:13:44;;;;;;;21.50;9.20;;;0.90;98.00;;;;;;5047602;28;20061;-64
2023/01/31 06:16:10;;;;;;;19.27;7.60;;;0.90;98.00;;;;;;5041115;28;20025;-65
2023/01/31 06:18:36;;;;;;;20.83;9.98;;;0.90;98.00;;;;;;5040344;28;20395;-63
2023/01/31 06:21:01;;;;;;;17.67;8.13;;;0.80;98.00;;;;;;5040860;28;20056;-63
2023/01/31 06:23:27;;;;;;;23.55;7.85;;;0.80;98.00;;;;;;5038891;28;20098;-63
2023/01/31 06:25:54;;;;;;;19.35;7.97;;;0.80;98.00;;;;;;5040154;28;20299;-63
2023/01/31 06:28:20;;;;;;;18.30;7.43;;;0.80;98.00;;;;;;5038631;28;20033;-63
2023/01/31 06:30:46;;;;;;;21.02;7.20;;;0.90;98.00;;;;;;5045296;28;20108;-63
2023/01/31 06:33:12;;;;;;;17.00;7.43;;;1.00;98.00;;;;;;5055080;28;20036;-63
2023/01/31 06:35:38;;;;;;;21.63;7.40;;;1.10;98.00;;;;;;5046048;28;20311;-63
2023/01/31 06:38:05;;;;;;;21.27;7.25;;;1.10;98.00;;;;;;5034111;28;20318;-64
2023/01/31 06:40:31;;;;;;;24.63;7.38;;;1.10;98.00;;;;;;5040163;28;20025;-63
2023/01/31 06:42:57;;;;;;;22.65;8.48;;;1.10;98.00;;;;;;5038551;28;20025;-63
2023/01/31 06:45:23;;;;;;;22.75;7.13;;;1.10;98.00;;;;;;5046419;28;20379;-63
2023/01/31 06:47:49;;;;;;;26.65;8.52;;;1.20;98.00;;;;;;5039524;28;20040;-63
2023/01/31 06:50:15;;;;;;;21.00;8.70;;;1.10;98.00;;;;;;5038790;28;20025;-63
2023/01/31 06:52:41;;;;;;;18.98;7.72;;;1.10;98.00;;;;;;5046286;28;20421;-63
2023/01/31 06:55:07;;;;;;;18.63;6.45;;;1.10;98.00;;;;;;5035253;28;20053;-63
2023/01/31 06:57:33;;;;;;;21.38;7.75;;;1.10;98.00;;;;;;5038611;28;20041;-63
2023/01/31 06:59:58;;;;;;;21.40;7.65;;;1.10;98.00;;;;;;5042460;28;20021;-63
2023/01/31 07:02:24;;;;;;;16.40;7.20;;;1.10;98.00;;;;;;5035414;28;20026;-63
2023/01/31 07:04:50;;;;;;;16.70;6.60;;;1.10;98.00;;;;;;5038161;28;20322;-63
2023/01/31 07:07:16;;;;;;;25.05;10.02;;;1.20;98.00;;;;;;5053763;28;20060;-63
2023/01/31 07:09:41;;;;;;;16.45;7.88;;;1.20;98.00;;;;;;5049638;28;20108;-63
2023/01/31 07:12:07;;;;;;;16.90;6.40;;;1.10;98.00;;;;;;5051606;28;20096;-63
2023/01/31 07:14:32;;;;;;;20.67;9.40;;;1.10;98.00;;;;;;5055150;28;20025;-63
2023/01/31 07:16:58;;;;;;;20.65;8.50;;;1.20;98.00;;;;;;5055523;28;20037;-63
2023/01/31 07:19:23;;;;;;;18.30;6.85;;;1.20;98.00;;;;;;5048359;28;20028;-63
2023/01/31 07:21:49;;;;;;;21.90;8.68;;;1.10;98.00;;;;;;5039878;28;20021;-62
2023/01/31 07:24:15;;;;;;;15.50;5.85;;;1.20;98.00;;;;;;5038547;28;20330;-62
2023/01/31 07:26:41;;;;;;;17.95;8.30;;;1.20;98.00;;;;;;5042658;28;20028;-62
2023/01/31 07:29:06;;;;;;;15.98;6.22;;;1.20;98.00;;;;;;5055440;28;20047;-62
2023/01/31 07:31:32;;;;;;;20.38;5.70;;;1.20;98.00;;;;;;5054643;28;20369;-63
2023/01/31 07:33:59;;;;;;;19.20;6.93;;;1.20;98.00;;;;;;5055417;28;20414;-63
2023/01/31 07:36:25;;;;;;;18.85;7.55;;;1.20;98.00;;;;;;5048114;28;20035;-63
2023/01/31 07:38:55;;;;;;;22.38;7.72;;;1.20;98.00;;;;;;5034368;28;20083;-63
2023/01/31 07:41:21;;;;;;;16.05;5.50;;;1.20;98.00;;;;;;5035391;28;20041;-63
2023/01/31 07:43:46;;;;;;;16.13;5.65;;;1.20;98.00;;;;;;5045417;28;20059;-63
2023/01/31 07:46:12;;;;;;;21.98;6.50;;;1.20;98.00;;;;;;5054774;28;20033;-63
2023/01/31 07:48:38;;;;;;;18.98;6.05;;;1.10;98.00;;;;;;5048916;28;20326;-63
2023/01/31 07:51:04;;;;;;;20.17;5.60;;;1.10;98.00;;;;;;5038391;28;20097;-63
2023/01/31 07:53:32;;;;;;;20.13;6.68;;;1.00;98.00;;;;;;5044081;28;20026;-64
2023/01/31 07:56:12;;;;;;;16.33;5.78;;;0.90;98.00;;;;;;5041517;28;20033;-63
2023/01/31 07:58:40;;;;;;;21.88;6.25;;;0.90;98.00;;;;;;5057253;28;20123;-63
2023/01/31 08:03:51;;;;;;;24.25;7.18;;;0.80;98.00;;;;;;5058679;28;20071;-63
2023/01/31 08:06:16;;;;;;;20.05;6.63;;;0.70;98.00;;;;;;5058851;28;20101;-63
2023/01/31 08:08:43;;;;;;;21.40;7.57;;;0.80;98.00;;;;;;5057422;28;20323;-63
2023/01/31 08:11:10;;;;;;;17.75;8.45;;;0.90;98.00;;;;;;5050639;28;20055;-63
2023/01/31 08:13:37;;;;;;;18.17;7.72;;;1.00;98.00;;;;;;5038468;28;20029;-63
2023/01/31 08:16:05;;;;;;;22.55;7.88;;;1.00;98.00;;;;;;5039314;28;20028;-63
2023/01/31 08:18:31;;;;;;;23.73;9.05;;;1.10;98.00;;;;;;5038622;28;20021;-63
2023/01/31 08:20:57;;;;;;;19.80;6.75;;;1.20;98.00;;;;;;5048430;28;20028;-63
2023/01/31 08:23:23;;;;;;;17.67;6.82;;;1.30;98.00;;;;;;5057303;28;20121;-63
2023/01/31 08:25:49;;;;;;;16.85;6.63;;;1.50;98.00;;;;;;5053717;28;20666;-63
2023/01/31 08:28:14;;;;;;;21.40;7.78;;;1.60;98.00;;;;;;5049847;28;20033;-63
2023/01/31 08:30:41;;;;;;;20.50;7.53;;;1.70;98.00;;;;;;5041490;28;20528;-63
2023/01/31 08:33:08;;;;;;;19.58;7.07;;;1.70;98.00;;;;;;5041260;28;20025;-63
2023/01/31 08:35:33;;;;;;;22.92;8.75;;;1.80;98.00;;;;;;5052616;28;20017;-63
2023/01/31 08:37:59;;;;;;;19.63;8.25;;;1.80;98.00;;;;;;5039125;28;20948;-63
2023/01/31 08:40:28;;;;;;;15.95;7.15;;;2.00;98.00;;;;;;5028034;28;20059;-63
2023/01/31 08:42:55;;;;;;;20.80;8.85;;;2.00;98.00;;;;;;5032183;28;20033;-63
2023/01/31 08:45:23;;;;;;;22.58;9.18;;;2.00;98.00;;;;;;5023419;28;20044;-63
2023/01/31 08:47:54;;;;;;;15.35;5.78;;;2.00;98.00;;;;;;5023634;28;20418;-63
2023/01/31 08:50:20;;;;;;;21.00;6.55;;;2.10;98.00;;;;;;5027154;28;20034;-63
2023/01/31 08:52:45;;;;;;;21.13;6.28;;;2.00;98.00;;;;;;5028474;28;20029;-63
2023/01/31 08:55:12;;;;;;;20.33;6.80;;;1.90;98.00;;;;;;5028132;28;20054;-64
2023/01/31 08:57:43;;;;;;;18.42;5.63;;;1.70;98.00;;;;;;5024197;28;20035;-63
2023/01/31 09:00:09;;;;;;;19.60;6.18;;;2.10;98.00;;;;;;5026708;28;20147;-63
2023/01/31 09:02:35;;;;;;;16.55;5.97;;;2.70;97.90;;;;;;5031010;28;20359;-63
2023/01/31 09:05:04;;;;;;;19.73;6.82;;;2.80;97.10;;;;;;5046408;28;20057;-62
2023/01/31 09:07:32;;;;;;;14.95;4.80;;;3.20;96.90;;;;;;5024845;28;20063;-63
2023/01/31 09:09:58;;;;;;;12.50;5.78;;;3.40;95.00;;;;;;5046555;28;20025;-65
2023/01/31 09:12:23;;;;;;;15.65;6.43;;;3.60;94.50;;;;;;5057689;28;20087;-64
2023/01/31 09:14:50;;;;;;;10.73;4.97;;;4.10;93.90;;;;;;5045097;28;20079;-64
2023/01/31 09:17:16;;;;;;;16.48;5.47;;;4.60;91.70;;;;;;5037955;28;20049;-65
2023/01/31 09:19:42;;;;;;;12.90;4.55;;;4.60;90.60;;;;;;5055036;28;20495;-64
2023/01/31 09:22:07;;;;;;;11.55;4.80;;;4.70;90.30;;;;;;5057570;28;20029;-64
2023/01/31 09:24:33;;;;;;;52.78;26.40;;;4.80;90.10;;;;;;5056015;28;20124;-64
2023/01/31 09:26:58;;;;;;;16.08;5.32;;;4.70;90.10;;;;;;5045160;28;20487;-64
2023/01/31 09:29:24;;;;;;;13.57;5.80;;;4.80;90.40;;;;;;5037285;28;20597;-64
2023/01/31 09:31:53;;;;;;;18.98;6.45;;;4.70;88.70;;;;;;5041157;28;20047;-63
2023/01/31 09:34:20;;;;;;;17.23;5.13;;;4.20;90.20;;;;;;5057033;28;20021;-64
2023/01/31 09:36:46;;;;;;;16.73;4.75;;;3.80;91.30;;;;;;5038654;28;20104;-64
2023/01/31 09:39:12;;;;;;;14.68;4.65;;;3.70;91.80;;;;;;5034421;28;20113;-64
2023/01/31 09:41:42;;;;;;;12.98;4.35;;;3.70;91.70;;;;;;5036076;28;20410;-64
2023/01/31 09:44:36;;;;;;;13.85;5.38;;;3.90;91.10;;;;;;5045126;28;20432;-64
2023/01/31 09:47:23;;;;;;;12.68;5.00;;;4.50;91.00;;;;;;5040000;28;20025;-64
2023/01/31 09:49:57;;;;;;;14.90;5.97;;;4.60;89.10;;;;;;5042541;28;20338;-64
2023/01/31 09:52:23;;;;;;;17.55;5.78;;;4.40;89.60;;;;;;5036029;28;20025;-64
2023/01/31 09:54:48;;;;;;;13.75;4.63;;;4.10;90.20;;;;;;5036590;28;20484;-64
2023/01/31 09:57:49;;;;;;;15.30;5.75;;;3.80;91.10;;;;;;5045348;28;20033;-64
2023/01/31 10:00:24;;;;;;;13.68;5.18;;;3.80;91.50;;;;;;5034906;28;20041;-64
2023/01/31 10:03:20;;;;;;;12.68;4.47;;;4.80;89.90;;;;;;5035134;28;20426;-64
2023/01/31 10:05:51;;;;;;;14.70;4.20;;;4.60;88.00;;;;;;5051070;28;20436;-64
2023/01/31 10:08:38;;;;;;;13.77;4.57;;;4.10;89.40;;;;;;5034310;28;20112;-64
2023/01/31 10:11:13;;;;;;;11.10;3.60;;;4.20;90.30;;;;;;5039302;28;20021;-64
2023/01/31 10:13:58;;;;;;;11.93;3.72;;;4.20;89.50;;;;;;5035464;28;20037;-64
2023/01/31 10:16:43;;;;;;;22.50;5.57;;;4.30;89.40;;;;;;5035294;28;20032;-64
2023/01/31 10:19:14;;;;;;;;;;;4.60;88.90;;;;;;5041005;28;20365;-64
2023/01/31 10:21:50;;;;;;;12.05;4.18;;;4.50;88.90;;;;;;5047506;28;19920;-64
2023/01/31 10:24:32;;;;;;;11.25;3.75;;;4.30;88.30;;;;;;5045938;28;20071;-64
2023/01/31 10:27:10;;;;;;;12.10;4.22;;;3.90;89.70;;;;;;5051182;28;20087;-64
2023/01/31 10:29:57;;;;;;;11.88;4.00;;;3.80;90.10;;;;;;5039766;28;20025;-64
2023/01/31 10:32:39;;;;;;;13.00;4.38;;;3.60;90.40;;;;;;5049835;28;20029;-64
2023/01/31 10:35:24;;;;;;;33.67;14.63;;;3.40;91.10;;;;;;5036140;28;20083;-64
2023/01/31 10:37:58;;;;;;;14.95;4.28;;;3.50;91.60;;;;;;5037986;28;20025;-64
2023/01/31 10:40:35;;;;;;;11.27;4.22;;;3.50;91.30;;;;;;5038068;28;20029;-64
2023/01/31 10:43:11;;;;;;;13.15;5.70;;;3.70;91.30;;;;;;5035801;28;20045;-64
2023/01/31 10:45:37;;;;;;;14.15;5.47;;;4.10;90.80;;;;;;5048173;28;20064;-64
2023/01/31 10:48:06;;;;;;;17.48;5.32;;;4.00;90.40;;;;;;5036173;28;20034;-64
2023/01/31 10:50:44;;;;;;;18.92;5.90;;;3.90;90.90;;;;;;5036085;28;20057;-64
2023/01/31 10:53:51;;;;;;;15.95;4.95;;;4.00;90.80;;;;;;5041510;28;20287;-64
2023/01/31 10:56:33;;;;;;;17.08;6.65;;;3.90;90.10;;;;;;5054070;28;20029;-65
2023/01/31 10:59:01;;;;;;;21.52;7.65;;;3.80;91.00;;;;;;5055559;28;20051;-65
2023/01/31 11:01:27;;;;;;;24.75;8.68;;;4.50;89.30;;;;;;5043601;28;20108;-64
2023/01/31 11:03:55;;;;;;;13.25;5.45;;;4.40;87.80;;;;;;5035820;28;20021;-65
2023/01/31 11:06:22;;;;;;;13.98;4.72;;;4.30;88.70;;;;;;5034707;28;20418;-64
2023/01/31 11:08:53;;;;;;;12.60;3.97;;;4.80;88.50;;;;;;5049294;28;20040;-65
2023/01/31 11:11:21;;;;;;;12.60;3.63;;;5.00;86.70;;;;;;5035903;28;20025;-65
2023/01/31 11:14:17;;;;;;;10.80;3.10;;;5.40;86.60;;;;;;5040478;28;20067;-65
2023/01/31 11:16:44;;;;;;;12.98;3.40;;;6.40;84.60;;;;;;5046179;28;20124;-64
2023/01/31 11:19:43;;;;;;;11.05;3.70;;;7.40;81.20;;;;;;5043804;28;20036;-64
2023/01/31 11:22:19;;;;;;;13.25;3.80;;;7.10;80.30;;;;;;5054071;28;20029;-65
2023/01/31 11:24:48;;;;;;;11.32;5.00;;;6.10;82.90;;;;;;5052749;28;20051;-64
2023/01/31 11:27:27;;;;;;;15.32;4.22;;;5.50;85.20;;;;;;5039163;28;20057;-65
2023/01/31 11:29:56;;;;;;;9.02;3.70;;;5.20;86.20;;;;;;5054136;28;20075;-64
2023/01/31 11:32:29;;;;;;;11.63;4.10;;;5.50;86.00;;;;;;5040416;28;20111;-65
2023/01/31 11:34:59;;;;;;;15.23;4.25;;;5.60;85.80;;;;;;5034931;28;20044;-65
2023/01/31 11:37:27;;;;;;;13.25;4.88;;;5.40;86.50;;;;;;5037536;28;20083;-64
2023/01/31 11:40:14;;;;;;;14.27;5.10;;;5.30;87.30;;;;;;5039681;28;20021;-65
2023/01/31 11:42:50;;;;;;;9.77;4.32;;;5.40;86.70;;;;;;5041947;28;20322;-64
2023/01/31 11:45:18;;;;;;;16.02;4.97;;;5.20;87.30;;;;;;5049577;28;20036;-65
2023/01/31 11:47:53;;;;;;;9.85;4.00;;;4.90;87.90;;;;;;5039844;28;20026;-65
2023/01/31 11:50:22;;;;;;;13.98;5.45;;;4.80;88.80;;;;;;5038345;28;20021;-65
2023/01/31 11:52:54;;;;;;;15.38;5.07;;;4.90;88.90;;;;;;5039331;28;20426;-65
2023/01/31 11:55:20;;;;;;;14.05;5.10;;;4.60;89.20;;;;;;5038987;28;20125;-64
2023/01/31 11:57:56;;;;;;;13.43;5.60;;;4.30;91.10;;;;;;5049430;28;20033;-64
2023/01/31 12:00:28;;;;;;;10.05;4.65;;;4.10;91.70;;;;;;5039185;28;20029;-64
2023/01/31 12:03:04;;;;;;;16.75;5.10;;;3.90;92.70;;;;;;5049283;28;20422;-64
2023/01/31 12:05:45;;;;;;;10.68;4.45;;;3.90;92.60;;;;;;5040022;28;20040;-66
2023/01/31 12:08:29;;;;;;;11.07;4.65;;;4.10;92.60;;;;;;5052985;28;20033;-66
2023/01/31 12:10:55;;;;;;;10.40;3.42;;;4.50;91.40;;;;;;5038464;28;20457;-65
2023/01/31 12:13:21;;;;;;;16.02;6.32;;;4.80;89.90;;;;;;5041246;28;20033;-65
2023/01/31 12:16:17;;;;;;;12.02;4.15;;;4.70;89.60;;;;;;5042525;28;20036;-67
2023/01/31 12:19:04;;;;;;;10.38;4.35;;;4.60;89.30;;;;;;5038340;28;20037;-65
2023/01/31 12:21:42;;;;;;;11.13;4.05;;;4.40;90.00;;;;;;5045039;28;20033;-65
2023/01/31 12:24:07;;;;;;;9.48;4.03;;;4.20;90.80;;;;;;5042639;28;20482;-65
2023/01/31 12:26:52;;;;;;;13.80;4.72;;;4.00;91.40;;;;;;5046877;28;20044;-66
2023/01/31 12:29:26;;;;;;;13.30;4.20;;;3.80;92.30;;;;;;5042740;28;20038;-65
2023/01/31 12:32:04;;;;;;;12.20;5.00;;;3.90;93.00;;;;;;5041574;28;20083;-65
2023/01/31 12:34:32;;;;;;;13.48;4.25;;;3.90;92.60;;;;;;5037099;28;20026;-65
2023/01/31 12:37:05;;;;;;;10.70;5.13;;;3.80;92.30;;;;;;5044250;28;20029;-65
2023/01/31 12:39:44;;;;;;;9.40;3.70;;;3.80;92.70;;;;;;5051937;28;20402;-65
2023/01/31 12:42:39;;;;;;;12.55;3.80;;;3.80;91.40;;;;;;5048715;28;20033;-65
2023/01/31 12:45:05;;;;;;;;;;;3.90;91.20;;;;;;5040072;28;20047;-65
2023/01/31 12:47:49;;;;;;;11.77;3.90;;;3.90;90.50;;;;;;5047854;28;20206;-65
2023/01/31 12:51:06;;;;;;;14.57;5.05;;;3.90;91.00;;;;;;5045116;28;20437;-65
2023/01/31 12:53:44;;;;;;;13.43;4.18;;;3.90;90.50;;;;;;5032035;28;20033;-65
2023/01/31 12:56:27;;;;;;;7.80;3.35;;;4.10;90.60;;;;;;5041823;28;20111;-65
2023/01/31 12:59:00;;;;;;;11.25;3.50;;;4.60;89.90;;;;;;5038216;28;20441;-66
2023/01/31 13:01:50;;;;;;;9.55;3.58;;;4.80;87.90;;;;;;5045473;28;20112;-66
2023/01/31 13:04:33;;;;;;;10.38;3.83;;;4.80;87.50;;;;;;5039594;28;20056;-65
2023/01/31 13:07:04;;;;;;;12.80;5.60;;;4.80;88.20;;;;;;5054517;28;20303;-65
2023/01/31 13:09:33;;;;;;;14.02;3.60;;;5.20;87.10;;;;;;5045892;28;20100;-65